Time;durP1;ratioP1;P1;durP2;ratioP2;P2;SDS_P1;SDS_P2;PMS_P1;PMS_P2;Temp;Humidity;BMP_temperature;BMP_pressure;BME280_temperature;BME280_humidity;BME280_pressure;Samples;Min_cycle;Max_cycle;Signal;HPM_P1;HPM_P2
2022/08/16 00:02:04;;;;;;;13.30;9.80;;;;;;;21.15;63.35;100465.75;6183261;23;20055;-92
2022/08/16 00:04:30;;;;;;;10.38;8.77;;;;;;;21.25;63.17;100475.69;6209548;23;20289;-94
2022/08/16 00:06:55;;;;;;;10.52;8.63;;;;;;;21.27;63.02;100477.25;6209297;23;20344;-94
2022/08/16 00:09:21;;;;;;;11.10;9.60;;;;;;;21.07;64.20;100470.13;6183330;23;20012;-92
2022/08/16 00:11:48;;;;;;;10.23;9.13;;;;;;;21.04;63.72;100470.41;6210044;23;20004;-92
2022/08/16 00:14:16;;;;;;;11.45;8.70;;;;;;;20.94;63.88;100474.91;6182583;23;20428;-92
2022/08/16 00:16:42;;;;;;;10.07;8.85;;;;;;;20.71;65.68;100482.34;6182809;23;20016;-93
2022/08/16 00:19:08;;;;;;;14.63;9.60;;;;;;;20.78;64.83;100484.34;6182346;23;20005;-93
2022/08/16 00:21:34;;;;;;;12.00;9.32;;;;;;;20.78;64.41;100480.78;6184812;23;20036;-92
2022/08/16 00:24:00;;;;;;;10.02;8.38;;;;;;;20.84;62.85;100481.13;6184158;23;20015;-93
2022/08/16 00:26:25;;;;;;;10.07;8.68;;;;;;;20.96;62.56;100478.31;6182971;23;20020;-92
2022/08/16 00:28:51;;;;;;;12.90;9.77;;;;;;;20.93;63.88;100478.56;6182406;23;20387;-93
2022/08/16 00:31:16;;;;;;;13.98;10.25;;;;;;;20.75;65.31;100483.75;6182214;23;20348;-93
2022/08/16 00:33:42;;;;;;;16.27;11.82;;;;;;;20.61;66.51;100499.28;6183271;23;20012;-92
2022/08/16 00:36:07;;;;;;;14.80;8.82;;;;;;;20.67;64.96;100499.72;6182506;23;20000;-92
2022/08/16 00:38:32;;;;;;;11.75;9.85;;;;;;;20.48;65.73;100484.38;6182525;23;20440;-92
2022/08/16 00:40:58;;;;;;;12.45;10.35;;;;;;;20.57;65.57;100495.16;6183147;23;20015;-92
2022/08/16 00:43:34;;;;;;;24.13;11.77;;;;;;;20.36;66.50;100489.75;6182924;23;20005;-92
2022/08/16 00:46:13;;;;;;;14.77;10.48;;;;;;;20.21;66.87;100501.84;6207741;23;20047;-92
2022/08/16 00:48:40;;;;;;;19.85;10.38;;;;;;;20.28;66.55;100497.63;6209643;23;20005;-92
2022/08/16 00:51:06;;;;;;;11.45;9.13;;;;;;;20.29;65.46;100482.41;6209119;23;20004;-93
2022/08/16 00:53:33;;;;;;;13.30;9.38;;;;;;;20.50;64.24;100491.28;6209927;23;20009;-93
2022/08/16 00:56:04;;;;;;;12.35;9.68;;;;;;;20.51;65.43;100495.66;6208667;23;20001;-93
2022/08/16 00:58:31;;;;;;;10.20;8.63;;;;;;;20.52;64.18;100494.69;6182635;23;20020;-93
2022/08/16 01:00:57;;;;;;;12.02;8.00;;;;;;;20.49;63.12;100500.34;6209253;23;20013;-92
2022/08/16 01:03:26;;;;;;;8.45;7.65;;;;;;;20.51;62.40;100500.19;6182431;23;20023;-92
2022/08/16 01:05:52;;;;;;;9.73;8.73;;;;;;;20.47;64.08;100505.00;6182302;23;20468;-92
2022/08/16 01:08:21;;;;;;;13.05;9.02;;;;;;;20.38;65.38;100505.75;6182675;23;20043;-93
2022/08/16 01:10:46;;;;;;;14.27;8.77;;;;;;;20.33;64.75;100497.22;6209840;23;20012;-93
2022/08/16 01:13:26;;;;;;;10.23;8.48;;;;;;;20.43;63.61;100511.59;6184484;23;20066;-92
2022/08/16 01:15:59;;;;;;;11.55;9.20;;;;;;;20.31;64.89;100504.56;6182426;23;20523;-92
2022/08/16 01:18:31;;;;;;;11.70;8.63;;;;;;;20.13;65.33;100493.59;6183528;23;20036;-92
2022/08/16 01:21:14;;;;;;;10.45;9.23;;;;;;;20.11;65.35;100499.09;6181980;23;20004;-93
2022/08/16 01:24:04;;;;;;;9.73;8.57;;;;;;;20.13;64.59;100505.16;6182896;23;20079;-92
2022/08/16 01:26:32;;;;;;;11.13;9.30;;;;;;;20.06;65.72;100500.47;6208831;23;20074;-93
2022/08/16 01:29:01;;;;;;;11.35;10.15;;;;;;;19.84;67.19;100496.91;6182150;23;20001;-92
2022/08/16 01:31:27;;;;;;;12.05;10.73;;;;;;;19.69;68.25;100492.00;6209134;23;20267;-92
2022/08/16 01:33:53;;;;;;;11.52;10.20;;;;;;;19.73;67.08;100491.63;6182717;23;20004;-92
2022/08/16 01:36:19;;;;;;;10.85;9.85;;;;;;;19.80;67.13;100494.63;6208365;23;20036;-92
2022/08/16 01:38:47;;;;;;;11.95;10.60;;;;;;;19.70;67.33;100488.34;6182238;23;20015;-92
2022/08/16 01:41:21;;;;;;;11.85;10.60;;;;;;;19.55;68.09;100493.13;6182134;23;20005;-92
2022/08/16 01:43:48;;;;;;;17.95;13.13;;;;;;;19.31;70.73;100496.00;6183153;23;20015;-93
2022/08/16 01:46:28;;;;;;;13.40;11.73;;;;;;;19.25;69.86;100489.31;6206924;23;20035;-93
2022/08/16 01:48:57;;;;;;;14.07;12.00;;;;;;;19.21;70.56;100489.69;6181745;23;20031;-92
2022/08/16 01:51:25;;;;;;;14.18;11.77;;;;;;;19.19;69.11;100488.97;6181777;23;20463;-92
2022/08/16 01:53:50;;;;;;;11.88;10.65;;;;;;;19.37;68.23;100492.81;6182118;23;20005;-92
2022/08/16 01:56:17;;;;;;;13.27;10.98;;;;;;;19.28;68.71;100488.22;6180872;23;20015;-92
2022/08/16 01:58:42;;;;;;;12.68;10.38;;;;;;;19.08;69.42;100482.66;6182343;23;20095;-93
2022/08/16 02:01:07;;;;;;;11.68;10.23;;;;;;;19.12;69.41;100488.63;6182740;23;20051;-91
2022/08/16 02:03:33;;;;;;;12.38;11.15;;;;;;;19.02;69.29;100493.84;6183589;23;20008;-92
2022/08/16 02:05:58;;;;;;;14.43;11.15;;;;;;;19.02;70.04;100487.66;6181399;23;20553;-92
2022/08/16 02:08:25;;;;;;;12.85;10.52;;;;;;;19.07;69.34;100488.13;6208974;23;20010;-92
2022/08/16 02:10:53;;;;;;;11.85;9.73;;;;;;;19.23;69.04;100496.63;6181896;23;20008;-93
2022/08/16 02:13:18;;;;;;;11.75;10.35;;;;;;;19.13;69.00;100495.69;6181969;23;20011;-92
2022/08/16 02:15:43;;;;;;;11.95;9.40;;;;;;;19.00;68.52;100493.13;6206997;23;20000;-92
2022/08/16 02:18:09;;;;;;;11.55;9.93;;;;;;;18.98;68.98;100492.44;6182656;23;20059;-92
2022/08/16 02:20:36;;;;;;;12.23;9.55;;;;;;;18.92;69.11;100500.09;6209062;23;20059;-92
2022/08/16 02:23:03;;;;;;;13.98;10.23;;;;;;;18.85;69.71;100497.06;6208833;23;20037;-92
2022/08/16 02:25:29;;;;;;;12.13;10.40;;;;;;;18.78;70.28;100482.44;6209363;23;20008;-92
2022/08/16 02:27:54;;;;;;;14.00;11.32;;;;;;;18.73;71.18;100484.66;6181992;23;20009;-91
2022/08/16 02:30:23;;;;;;;11.95;10.27;;;;;;;18.83;70.46;100499.84;6181587;23;20012;-93
2022/08/16 02:32:49;;;;;;;12.50;10.43;;;;;;;18.85;70.13;100497.06;6207963;23;20063;-93
2022/08/16 02:35:15;;;;;;;13.23;10.52;;;;;;;18.94;69.59;100496.31;6208233;23;20004;-92
2022/08/16 02:37:40;;;;;;;12.70;10.60;;;;;;;19.05;69.35;100495.44;6209504;23;20028;-92
2022/08/16 02:40:07;;;;;;;13.68;12.05;;;;;;;19.06;70.30;100495.31;6182280;23;20335;-92
2022/08/16 02:42:32;;;;;;;14.50;11.30;;;;;;;19.17;69.28;100497.13;6182990;23;20432;-92
2022/08/16 02:44:58;;;;;;;14.07;11.98;;;;;;;19.18;69.98;100498.84;6208959;23;20012;-92
2022/08/16 02:47:23;;;;;;;12.02;10.20;;;;;;;19.21;67.22;100495.91;6209105;23;20129;-92
2022/08/16 02:49:49;;;;;;;12.45;10.20;;;;;;;19.17;67.88;100482.91;6209056;23;20004;-93
2022/08/16 02:52:14;;;;;;;12.00;10.75;;;;;;;19.26;67.78;100491.03;6181308;23;20379;-93
2022/08/16 02:54:40;;;;;;;11.43;9.88;;;;;;;19.23;66.80;100480.53;6209230;23;20409;-92
2022/08/16 02:57:05;;;;;;;12.88;9.68;;;;;;;19.31;66.53;100488.81;6182060;23;20008;-93
2022/08/16 02:59:30;;;;;;;18.75;11.13;;;;;;;19.40;66.15;100495.25;6182560;23;20012;-93
2022/08/16 03:01:56;;;;;;;13.70;11.02;;;;;;;19.44;66.39;100485.94;6181237;23;20095;-93
2022/08/16 03:04:22;;;;;;;12.70;10.00;;;;;;;19.40;67.00;100495.25;6182193;23;20040;-93
2022/08/16 03:06:48;;;;;;;16.67;11.10;;;;;;;19.27;67.35;100481.16;6182493;23;20310;-93
2022/08/16 03:09:13;;;;;;;13.95;11.82;;;;;;;19.17;67.87;100478.38;6207719;23;20008;-92
2022/08/16 03:11:38;;;;;;;14.07;12.35;;;;;;;19.08;69.34;100479.13;6181828;23;20008;-92
2022/08/16 03:14:05;;;;;;;17.55;13.05;;;;;;;19.10;68.71;100486.06;6182469;23;20018;-93
2022/08/16 03:16:30;;;;;;;16.25;13.48;;;;;;;19.07;69.49;100486.31;6208255;23;20076;-92
2022/08/16 03:18:56;;;;;;;18.73;13.48;;;;;;;18.97;68.76;100477.31;6208285;23;20383;-92
2022/08/16 03:21:21;;;;;;;15.00;12.88;;;;;;;18.99;68.03;100483.41;6176021;23;20457;-92
2022/08/16 03:23:47;;;;;;;18.08;13.65;;;;;;;18.95;68.83;100478.41;6210548;23;20031;-92
2022/08/16 03:26:12;;;;;;;15.82;13.23;;;;;;;19.00;68.08;100482.41;6183423;23;20454;-92
2022/08/16 03:28:39;;;;;;;18.05;13.70;;;;;;;18.89;69.82;100486.97;6182329;23;20008;-93
2022/08/16 03:31:05;;;;;;;18.75;14.98;;;;;;;18.82;70.47;100481.22;6183825;23;20024;-92
2022/08/16 03:33:31;;;;;;;17.60;14.70;;;;;;;18.85;70.08;100473.81;6210668;23;20012;-93
2022/08/16 03:35:58;;;;;;;20.70;14.52;;;;;;;18.90;69.90;100473.44;6212102;23;20004;-92
2022/08/16 03:38:25;;;;;;;17.63;14.20;;;;;;;18.89;69.97;100487.81;6210746;23;20321;-92
2022/08/16 03:40:51;;;;;;;18.08;14.35;;;;;;;18.83;70.96;100486.44;6209240;23;20083;-91
2022/08/16 03:43:16;;;;;;;22.63;14.15;;;;;;;18.77;69.45;100486.94;6210756;23;20168;-92
2022/08/16 03:45:42;;;;;;;16.77;13.82;;;;;;;18.80;69.83;100484.03;6209931;23;20027;-92
2022/08/16 03:48:08;;;;;;;17.85;13.30;;;;;;;18.85;68.92;100494.38;6183741;23;20011;-92
2022/08/16 03:50:34;;;;;;;17.67;14.05;;;;;;;18.78;69.97;100482.44;6184271;23;20047;-92
2022/08/16 03:53:00;;;;;;;18.63;13.80;;;;;;;18.67;70.84;100488.63;6208926;23;20079;-92
2022/08/16 03:55:26;;;;;;;21.67;15.18;;;;;;;18.71;70.68;100500.84;6183761;23;20509;-93
2022/08/16 03:57:52;;;;;;;18.85;13.73;;;;;;;18.73;70.23;100508.75;6183961;23;20008;-92
2022/08/16 04:00:27;;;;;;;16.42;14.55;;;;;;;18.73;69.65;100514.09;6182503;23;20008;-93
2022/08/16 04:03:01;;;;;;;20.00;16.25;;;;;;;18.81;71.42;100515.19;6183084;23;20004;-92
2022/08/16 04:05:27;;;;;;;16.42;14.48;;;;;;;18.81;70.41;100523.22;6184206;23;20417;-93
2022/08/16 04:07:53;;;;;;;19.30;15.48;;;;;;;18.82;71.25;100527.59;6210740;23;20026;-91
2022/08/16 04:10:18;;;;;;;22.73;16.00;;;;;;;18.78;70.62;100518.09;6183378;23;20004;-92
2022/08/16 04:12:44;;;;;;;16.70;14.77;;;;;;;18.76;71.35;100519.22;6182630;23;20416;-92
2022/08/16 04:15:12;;;;;;;17.83;15.00;;;;;;;18.81;70.67;100533.09;6182953;23;20004;-93
2022/08/16 04:17:38;;;;;;;20.40;15.40;;;;;;;18.83;71.07;100537.34;6182272;23;20007;-93
2022/08/16 04:20:08;;;;;;;21.33;15.52;;;;;;;18.76;70.30;100528.09;6210181;23;20032;-93
2022/08/16 04:22:34;;;;;;;21.08;16.23;;;;;;;18.77;70.30;100529.81;6182812;23;20391;-92
2022/08/16 04:25:00;;;;;;;18.48;15.07;;;;;;;18.73;70.29;100532.84;6208943;23;20444;-93
2022/08/16 04:27:25;;;;;;;22.20;17.05;;;;;;;18.64;72.10;100525.50;6156251;23;20071;-93
2022/08/16 04:29:51;;;;;;;20.23;16.75;;;;;;;18.60;71.81;100522.22;6152815;23;20004;-92
2022/08/16 04:32:16;;;;;;;20.83;18.15;;;;;;;18.68;71.71;100530.50;6151434;23;20396;-92
2022/08/16 04:34:41;;;;;;;19.40;15.50;;;;;;;18.76;69.51;100535.28;6152583;23;20001;-93
2022/08/16 04:37:07;;;;;;;22.67;16.70;;;;;;;18.76;70.08;100520.06;6153972;23;20009;-93
2022/08/16 04:39:34;;;;;;;24.05;17.13;;;;;;;18.78;70.92;100526.16;6180583;23;20008;-93
2022/08/16 04:42:00;;;;;;;24.38;16.70;;;;;;;18.69;71.11;100518.00;6177724;23;20321;-92
2022/08/16 04:44:25;;;;;;;20.20;16.67;;;;;;;18.65;71.61;100509.31;6152125;23;20012;-92
2022/08/16 04:46:51;;;;;;;20.27;17.02;;;;;;;18.65;71.99;100533.41;6179836;23;20001;-92
2022/08/16 04:49:17;;;;;;;20.38;17.45;;;;;;;18.61;72.16;100537.31;6153880;23;20136;-91
2022/08/16 04:51:42;;;;;;;24.23;18.02;;;;;;;18.50;72.79;100535.47;6179365;23;20314;-92
2022/08/16 04:54:08;;;;;;;19.83;16.55;;;;;;;18.51;71.97;100528.28;6154354;23;20015;-92
2022/08/16 04:56:34;;;;;;;20.50;16.25;;;;;;;18.56;72.91;100529.66;6150171;23;20359;-94
2022/08/16 04:58:59;;;;;;;19.95;16.60;;;;;;;18.52;71.36;100536.22;6151522;23;20080;-93
2022/08/16 05:01:25;;;;;;;19.90;16.60;;;;;;;18.68;71.86;100540.38;6178706;23;20025;-92
2022/08/16 05:03:51;;;;;;;18.60;15.00;;;;;;;18.72;71.61;100534.69;6152279;23;20096;-89
2022/08/16 05:06:16;;;;;;;17.95;16.00;;;;;;;18.72;71.74;100528.47;6180077;23;20332;-93
2022/08/16 05:08:41;;;;;;;23.00;17.08;;;;;;;18.74;71.86;100535.41;6152046;23;20001;-92
2022/08/16 05:11:08;;;;;;;21.40;16.92;;;;;;;18.72;72.88;100540.03;6151400;23;20008;-92
2022/08/16 05:13:38;;;;;;;21.58;16.33;;;;;;;18.72;71.71;100540.03;6180153;23;20032;-94
2022/08/16 05:16:03;;;;;;;20.23;17.13;;;;;;;18.81;71.66;100531.28;6151488;23;20009;-93
2022/08/16 05:18:30;;;;;;;21.85;17.70;;;;;;;18.92;71.89;100537.59;6152861;23;20515;-93
2022/08/16 05:20:55;;;;;;;23.80;18.85;;;;;;;19.02;72.15;100544.75;6153477;23;20333;-92
2022/08/16 05:23:21;;;;;;;26.30;18.98;;;;;;;19.01;72.40;100545.75;6153086;23;20005;-94
2022/08/16 05:25:47;;;;;;;22.23;19.42;;;;;;;19.06;73.12;100553.41;6157669;23;20614;-91
2022/08/16 05:28:12;;;;;;;22.42;17.70;;;;;;;19.08;71.40;100548.81;6181757;23;20107;-93
2022/08/16 05:30:37;;;;;;;20.70;18.27;;;;;;;19.18;71.63;100557.78;6209231;23;20031;-92
2022/08/16 05:33:04;;;;;;;22.67;17.02;;;;;;;19.18;71.66;100547.06;6207476;23;20335;-92
2022/08/16 05:35:30;;;;;;;22.50;18.75;;;;;;;19.27;72.32;100570.44;6181981;23;19997;-94
2022/08/16 05:37:55;;;;;;;23.73;18.38;;;;;;;19.36;71.22;100571.53;6209256;23;20005;-93
2022/08/16 05:40:20;;;;;;;19.92;17.33;;;;;;;19.42;70.98;100564.81;6209954;23;20569;-93
2022/08/16 05:42:46;;;;;;;25.15;18.73;;;;;;;19.47;71.49;100568.81;6181410;23;20099;-93
2022/08/16 05:45:12;;;;;;;24.23;18.58;;;;;;;19.55;71.29;100568.22;6181641;23;20011;-93
2022/08/16 05:47:37;;;;;;;24.73;18.92;;;;;;;19.58;70.91;100571.50;6207616;23;20550;-93
2022/08/16 05:50:04;;;;;;;26.58;18.15;;;;;;;19.57;70.91;100572.44;6182321;23;20139;-93
2022/08/16 05:52:30;;;;;;;23.02;20.45;;;;;;;19.65;70.52;100576.38;6180999;23;20005;-93
2022/08/16 05:54:55;;;;;;;28.17;21.88;;;;;;;19.77;70.80;100575.34;6183705;23;20001;-91
2022/08/16 05:57:20;;;;;;;27.88;21.85;;;;;;;19.82;70.58;100582.06;6210368;23;20028;-93
2022/08/16 05:59:46;;;;;;;30.55;22.23;;;;;;;19.85;69.67;100583.63;6209706;23;20013;-91
2022/08/16 06:02:12;;;;;;;28.83;23.30;;;;;;;19.90;69.92;100585.91;6180280;23;20019;-92
2022/08/16 06:04:37;;;;;;;26.42;22.58;;;;;;;19.90;70.11;100586.75;6182947;23;20016;-93
2022/08/16 06:07:05;;;;;;;28.70;23.17;;;;;;;19.98;70.31;100587.00;6182093;23;20004;-92
2022/08/16 06:09:31;;;;;;;28.90;21.80;;;;;;;20.03;69.71;100583.91;6208828;23;20008;-93
2022/08/16 06:11:56;;;;;;;25.92;21.40;;;;;;;20.02;69.34;100583.06;6208997;23;20083;-94
2022/08/16 06:14:21;;;;;;;29.35;22.20;;;;;;;20.03;69.46;100584.75;6209524;23;20004;-93
2022/08/16 06:16:47;;;;;;;23.67;20.67;;;;;;;20.15;69.07;100592.78;6208659;23;20076;-94
2022/08/16 06:19:12;;;;;;;25.23;20.05;;;;;;;20.19;68.52;100603.13;6181702;23;20008;-94
2022/08/16 06:21:37;;;;;;;28.55;20.48;;;;;;;20.16;68.28;100592.66;6210872;23;20015;-93
2022/08/16 06:24:03;;;;;;;23.02;20.00;;;;;;;20.27;67.80;100602.47;6212788;23;20005;-90
2022/08/16 06:26:28;;;;;;;25.55;18.30;;;;;;;20.38;67.22;100600.59;6183252;23;20063;-90
2022/08/16 06:28:54;;;;;;;26.08;19.42;;;;;;;20.42;66.76;100598.47;6182394;23;20013;-90
2022/08/16 06:31:19;;;;;;;23.15;18.25;;;;;;;20.50;66.31;100595.19;6180562;23;20012;-90
2022/08/16 06:33:45;;;;;;;24.00;17.85;;;;;;;20.61;66.29;100613.91;6209191;23;20038;-89
2022/08/16 06:36:12;;;;;;;22.73;17.77;;;;;;;20.71;65.80;100612.16;6210529;23;20012;-90
2022/08/16 06:38:37;;;;;;;28.15;18.55;;;;;;;20.81;65.56;100617.56;6181697;23;20009;-90
2022/08/16 06:41:08;;;;;;;26.85;18.95;;;;;;;20.91;64.93;100614.94;6181345;23;20108;-89
2022/08/16 06:43:34;;;;;;;21.42;17.40;;;;;;;20.97;65.11;100603.63;6209794;23;20439;-89
2022/08/16 06:46:01;;;;;;;21.23;18.02;;;;;;;21.15;64.07;100610.94;6180782;23;20009;-90
2022/08/16 06:48:26;;;;;;;23.00;18.23;;;;;;;21.16;63.15;100609.09;6207057;23;20005;-89
2022/08/16 06:50:52;;;;;;;21.48;17.77;;;;;;;21.17;63.35;100599.19;6208117;23;20415;-90
2022/08/16 06:53:19;;;;;;;21.85;17.83;;;;;;;21.24;64.00;100611.13;6208776;23;20313;-90
2022/08/16 06:55:44;;;;;;;21.75;18.30;;;;;;;21.25;63.64;100588.59;6182812;23;20075;-89
2022/08/16 06:58:10;;;;;;;22.40;17.35;;;;;;;21.42;62.90;100614.88;6184630;23;20276;-90
2022/08/16 07:00:37;;;;;;;24.33;17.70;;;;;;;21.48;62.51;100611.63;6182024;23;20050;-90
2022/08/16 07:03:03;;;;;;;20.80;18.13;;;;;;;21.65;62.12;100620.91;6182921;23;20355;-90
2022/08/16 07:05:30;;;;;;;24.10;18.13;;;;;;;21.74;61.99;100612.00;6184990;23;20000;-92
2022/08/16 07:07:56;;;;;;;23.02;18.42;;;;;;;21.85;61.31;100619.09;6210812;23;20008;-91
2022/08/16 07:10:22;;;;;;;24.70;17.83;;;;;;;21.93;61.26;100613.84;6210997;23;20064;-91
2022/08/16 07:12:49;;;;;;;22.02;18.30;;;;;;;22.09;60.73;100627.59;6209296;23;20036;-91
2022/08/16 07:15:15;;;;;;;27.27;19.65;;;;;;;22.03;60.56;100624.63;6182609;23;20012;-91
2022/08/16 07:17:41;;;;;;;20.45;17.80;;;;;;;22.14;60.45;100628.06;6184015;23;20316;-91
2022/08/16 07:20:09;;;;;;;21.15;18.20;;;;;;;22.23;60.09;100629.06;6210884;23;20008;-92
2022/08/16 07:22:34;;;;;;;21.50;18.02;;;;;;;22.24;60.03;100622.66;6183734;23;20047;-91
2022/08/16 07:25:00;;;;;;;24.25;18.83;;;;;;;22.29;59.58;100614.16;6184691;23;20088;-92
2022/08/16 07:27:26;;;;;;;23.65;18.35;;;;;;;22.42;59.64;100633.56;6182865;23;20023;-92
2022/08/16 07:29:51;;;;;;;22.58;18.25;;;;;;;22.54;58.90;100634.28;6209760;23;20063;-92
2022/08/16 07:32:19;;;;;;;22.45;17.00;;;;;;;22.64;59.39;100640.50;6209429;23;20007;-93
2022/08/16 07:34:45;;;;;;;21.85;18.60;;;;;;;22.84;58.35;100646.69;6183728;23;20010;-92
2022/08/16 07:37:10;;;;;;;19.83;17.40;;;;;;;22.86;58.79;100623.16;6209862;23;20008;-93
2022/08/16 07:39:37;;;;;;;21.52;15.93;;;;;;;23.11;58.12;100648.66;6209942;23;20008;-92
2022/08/16 07:42:03;;;;;;;23.10;17.00;;;;;;;23.01;57.23;100621.72;6183751;23;20008;-94
2022/08/16 07:44:29;;;;;;;17.98;16.05;;;;;;;23.40;57.75;100641.28;6209701;23;20509;-91
2022/08/16 07:46:55;;;;;;;21.20;16.48;;;;;;;23.83;55.60;100647.91;6208965;23;20431;-92
2022/08/16 07:49:20;;;;;;;19.88;16.10;;;;;;;24.14;54.62;100652.94;6182582;23;20455;-92
2022/08/16 07:51:46;;;;;;;19.52;15.98;;;;;;;24.48;54.04;100647.72;6182182;23;20019;-93
2022/08/16 07:54:11;;;;;;;17.02;15.20;;;;;;;24.60;54.03;100648.31;6210199;23;20031;-93
2022/08/16 07:56:37;;;;;;;20.27;16.45;;;;;;;24.74;52.88;100647.72;6183656;23;20005;-91
2022/08/16 07:59:03;;;;;;;20.83;15.10;;;;;;;25.14;52.87;100649.03;6181650;23;20386;-92
2022/08/16 08:01:29;;;;;;;18.65;15.20;;;;;;;25.51;50.90;100653.25;6182136;23;20062;-93
2022/08/16 08:03:56;;;;;;;17.83;14.65;;;;;;;25.75;50.01;100649.81;6183217;23;20004;-93
2022/08/16 08:06:23;;;;;;;15.13;13.48;;;;;;;25.99;50.08;100651.75;6183230;23;20019;-92
2022/08/16 08:08:49;;;;;;;17.33;14.60;;;;;;;26.10;49.14;100659.56;6180596;23;20039;-93
2022/08/16 08:11:15;;;;;;;16.50;13.88;;;;;;;25.87;49.34;100660.19;6184950;23;20008;-93
2022/08/16 08:13:40;;;;;;;15.35;13.57;;;;;;;26.18;48.91;100656.88;6184074;23;20092;-93
2022/08/16 08:16:06;;;;;;;18.60;13.13;;;;;;;26.47;48.63;100661.81;6183294;23;20103;-93
2022/08/16 08:18:31;;;;;;;15.13;12.48;;;;;;;27.00;46.88;100668.59;6211214;23;20011;-93
2022/08/16 08:20:57;;;;;;;16.77;13.57;;;;;;;27.30;45.47;100671.59;6188751;23;20014;-93
2022/08/16 08:23:23;;;;;;;14.93;11.68;;;;;;;27.43;45.79;100661.03;6192193;23;20031;-94
2022/08/16 08:25:48;;;;;;;12.05;10.90;;;;;;;27.89;43.80;100669.31;6185323;23;20012;-94
2022/08/16 08:28:15;;;;;;;13.50;12.10;;;;;;;28.29;42.79;100667.34;6209683;23;20314;-92
2022/08/16 08:30:41;;;;;;;14.10;12.70;;;;;;;28.39;42.49;100659.81;6183941;23;20000;-93
2022/08/16 08:33:06;;;;;;;14.02;10.88;;;;;;;28.80;41.69;100668.47;6184418;23;20012;-93
2022/08/16 08:35:33;;;;;;;10.95;9.50;;;;;;;29.16;41.25;100665.09;6184963;23;20079;-95
2022/08/16 08:37:59;;;;;;;12.88;9.65;;;;;;;28.98;40.08;100674.47;6186106;23;20435;-94
2022/08/16 08:40:26;;;;;;;9.93;8.93;;;;;;;28.83;40.67;100667.28;6185422;23;20036;-93
2022/08/16 08:42:51;;;;;;;12.07;9.25;;;;;;;28.85;39.97;100663.31;6185604;23;20206;-93
2022/08/16 08:45:17;;;;;;;18.42;10.30;;;;;;;29.04;39.20;100664.69;6183477;23;20005;-92
2022/08/16 08:47:45;;;;;;;13.65;8.80;;;;;;;29.57;38.59;100670.09;6183203;23;20577;-93
2022/08/16 08:50:11;;;;;;;14.15;8.68;;;;;;;29.72;37.58;100673.63;6210487;23;20004;-94
2022/08/16 08:52:38;;;;;;;16.42;10.02;;;;;;;29.63;38.35;100678.34;6184765;23;20013;-92
2022/08/16 08:55:09;;;;;;;11.35;9.02;;;;;;;29.85;38.06;100681.97;6184221;23;20393;-94
2022/08/16 08:57:35;;;;;;;10.75;9.75;;;;;;;29.78;37.35;100683.75;6184572;23;20060;-94
2022/08/16 09:00:00;;;;;;;11.23;10.00;;;;;;;29.52;37.24;100678.81;6182631;23;20004;-95
2022/08/16 09:02:26;;;;;;;12.18;10.95;;;;;;;29.86;37.24;100675.47;6183678;23;20015;-93
2022/08/16 09:04:51;;;;;;;11.40;10.10;;;;;;;30.26;35.82;100672.38;6211120;23;20479;-93
2022/08/16 09:07:16;;;;;;;11.00;9.82;;;;;;;30.94;35.89;100688.13;6210621;23;20020;-92
2022/08/16 09:09:42;;;;;;;11.73;9.68;;;;;;;31.70;35.31;100692.81;6182015;23;20058;-94
2022/08/16 09:12:07;;;;;;;11.32;10.13;;;;;;;31.91;32.05;100684.53;6184841;23;20039;-93
2022/08/16 09:14:37;;;;;;;10.25;7.95;;;;;;;32.03;34.23;100681.16;6211877;23;20004;-92
2022/08/16 09:17:02;;;;;;;11.10;8.20;;;;;;;32.31;33.21;100684.59;6186123;23;20008;-92
2022/08/16 09:19:28;;;;;;;12.30;8.50;;;;;;;32.22;31.88;100689.44;6209153;23;20080;-95
2022/08/16 09:21:53;;;;;;;8.25;7.43;;;;;;;32.19;32.14;100699.97;6213205;23;20424;-94
2022/08/16 09:24:19;;;;;;;9.90;8.60;;;;;;;32.32;31.54;100689.06;6190781;23;20005;-94
2022/08/16 09:26:44;;;;;;;12.10;8.30;;;;;;;32.26;32.09;100687.13;6188881;23;20040;-90
2022/08/16 09:29:09;;;;;;;12.75;7.55;;;;;;;32.73;31.21;100690.78;6213325;23;20005;-94
2022/08/16 09:31:35;;;;;;;8.90;6.38;;;;;;;33.45;31.07;100694.53;6187327;23;20000;-92
2022/08/16 09:34:01;;;;;;;8.90;8.00;;;;;;;33.41;29.90;100702.31;6185052;23;20008;-94
2022/08/16 09:36:28;;;;;;;9.88;6.97;;;;;;;33.90;29.64;100695.44;6182941;23;20134;-93
2022/08/16 09:38:53;;;;;;;7.35;6.55;;;;;;;34.99;30.37;100701.72;6208916;23;20007;-93
2022/08/16 09:41:18;;;;;;;9.27;6.85;;;;;;;35.28;27.35;100700.16;6210200;23;20000;-95
2022/08/16 09:43:44;;;;;;;8.18;6.68;;;;;;;34.68;27.70;100706.16;6181175;23;20004;-92
2022/08/16 09:46:10;;;;;;;15.07;8.23;;;;;;;33.87;28.50;100701.34;6208089;23;20011;-94
2022/08/16 09:48:38;;;;;;;11.10;8.65;;;;;;;33.08;28.77;100701.53;6182136;23;20008;-93
2022/08/16 09:51:04;;;;;;;12.13;6.88;;;;;;;33.56;28.79;100698.50;6180466;23;20332;-93
2022/08/16 09:53:30;;;;;;;10.90;7.25;;;;;;;33.45;27.96;100691.81;6208573;23;20075;-94
2022/08/16 09:55:56;;;;;;;7.45;6.63;;;;;;;33.76;28.31;100688.28;6182151;23;20000;-92
2022/08/16 09:58:35;;;;;;;10.77;6.70;;;;;;;32.91;28.67;100699.22;6196655;23;20005;-94
2022/08/16 10:01:00;;;;;;;9.48;5.82;;;;;;;32.78;29.74;100688.25;6193926;23;20008;-93
2022/08/16 10:03:26;;;;;;;6.97;6.28;;;;;;;32.54;29.56;100694.34;6189259;23;20016;-94
2022/08/16 10:05:54;;;;;;;9.47;6.40;;;;;;;32.82;29.57;100697.72;6220552;23;20020;-92
2022/08/16 10:08:20;;;;;;;9.23;6.10;;;;;;;33.00;28.65;100700.69;6195371;23;20239;-94
2022/08/16 10:13:10;;;;;;;11.82;6.00;;;;;;;33.30;29.50;100694.78;6191449;23;20031;-94
2022/08/16 10:13:35;;;;;;;7.50;6.70;;;;;;;32.85;28.49;100700.06;6219400;23;20441;-95
2022/08/16 10:16:01;;;;;;;9.82;5.60;;;;;;;33.05;28.74;100689.09;6188228;23;20427;-93
2022/08/16 10:18:28;;;;;;;6.40;5.85;;;;;;;33.22;29.00;100695.81;6186397;23;20138;-95
2022/08/16 10:20:54;;;;;;;8.40;6.53;;;;;;;32.62;27.87;100694.16;6184858;23;20010;-93
2022/08/16 10:23:20;;;;;;;8.38;5.13;;;;;;;32.05;29.48;100693.59;6188713;23;20449;-94
2022/08/16 10:25:46;;;;;;;6.07;5.47;;;;;;;32.54;28.49;100691.63;6187616;23;20008;-95
2022/08/16 10:28:12;;;;;;;8.40;5.60;;;;;;;32.75;28.13;100697.75;6188382;23;20008;-95
2022/08/16 10:30:42;;;;;;;9.20;5.47;;;;;;;32.64;28.29;100694.78;6186473;23;20019;-93
2022/08/16 10:33:08;;;;;;;8.32;5.30;;;;;;;32.98;28.34;100704.72;6214570;23;20083;-95
2022/08/16 10:35:33;;;;;;;5.82;5.22;;;;;;;33.19;28.38;100698.16;6185002;23;19997;-95
2022/08/16 10:37:59;;;;;;;8.55;4.97;;;;;;;33.24;27.54;100701.09;6185184;23;20063;-93
2022/08/16 10:40:24;;;;;;;5.10;4.70;;;;;;;33.25;27.94;100702.78;6184035;23;20008;-92
2022/08/16 10:42:51;;;;;;;6.72;5.18;;;;;;;33.05;26.96;100711.03;6183502;23;20343;-95
2022/08/16 10:45:17;;;;;;;7.03;4.55;;;;;;;33.19;27.65;100703.63;6185519;23;20001;-94
2022/08/16 10:47:43;;;;;;;6.28;5.03;;;;;;;33.55;27.10;100702.31;6212376;23;20008;-94
2022/08/16 10:50:09;;;;;;;5.10;4.68;;;;;;;33.76;27.01;100708.38;6182889;23;20421;-94
2022/08/16 10:52:34;;;;;;;7.57;4.85;;;;;;;34.08;25.81;100704.84;6185221;23;20083;-95
2022/08/16 10:55:01;;;;;;;8.70;4.43;;;;;;;34.03;26.22;100712.91;6194591;23;20007;-93
2022/08/16 10:57:27;;;;;;;7.97;5.20;;;;;;;33.11;26.65;100710.19;6198274;23;20004;-95
2022/08/16 11:00:02;;;;;;;6.05;5.53;;;;;;;33.43;27.12;100713.94;6213929;23;20008;-93
2022/08/16 11:02:32;;;;;;;5.72;5.22;;;;;;;33.72;26.08;100711.75;6193069;23;20008;-90
2022/08/16 11:04:58;;;;;;;6.35;4.57;;;;;;;34.11;25.60;100707.16;6197998;23;20020;-93
2022/08/16 11:07:24;;;;;;;7.65;5.43;;;;;;;34.09;25.35;100703.78;6162239;23;20053;-95
2022/08/16 11:09:49;;;;;;;6.35;4.85;;;;;;;34.01;25.57;100722.19;6217037;23;20005;-94
2022/08/16 11:12:14;;;;;;;9.23;5.32;;;;;;;34.15;26.64;100712.00;6190876;23;20054;-93